Time;durP1;ratioP1;P1;durP2;ratioP2;P2;SDS_P1;SDS_P2;PMS_P1;PMS_P2;Temp;Humidity;BMP_temperature;BMP_pressure;BME280_temperature;BME280_humidity;BME280_pressure;Samples;Min_cycle;Max_cycle;Signal;HPM_P1;HPM_P2
2022/01/30 00:01:50;;;;;;;4.68;3.08;;;;;;;7.61;100.00;96928.38;5039912;28;20068;-55
2022/01/30 00:04:18;;;;;;;3.05;2.85;;;;;;;7.62;100.00;96916.06;5039550;28;20099;-48
2022/01/30 00:06:47;;;;;;;3.00;2.80;;;;;;;7.54;100.00;96915.81;5042827;28;20065;-54
2022/01/30 00:09:18;;;;;;;3.10;2.90;;;;;;;7.54;100.00;96931.56;5041844;28;20095;-54
2022/01/30 00:11:51;;;;;;;3.05;2.85;;;;;;;7.48;100.00;96950.38;5040107;28;20743;-52
2022/01/30 00:14:23;;;;;;;3.15;2.85;;;;;;;7.56;100.00;96934.91;5041685;28;20080;-55
2022/01/30 00:16:58;;;;;;;2.90;2.75;;;;;;;7.43;100.00;96918.38;5042529;28;20069;-54
2022/01/30 00:19:33;;;;;;;3.10;2.90;;;;;;;7.55;100.00;96923.56;5041203;28;20063;-54
2022/01/30 00:22:14;;;;;;;3.00;2.80;;;;;;;7.55;100.00;96933.25;5040616;28;20072;-52
2022/01/30 00:24:49;;;;;;;3.30;3.10;;;;;;;7.52;100.00;96926.41;5042735;28;20064;-53
2022/01/30 00:27:21;;;;;;;3.05;2.85;;;;;;;7.51;100.00;96934.41;5039204;28;20096;-52
2022/01/30 00:29:52;;;;;;;3.35;3.10;;;;;;;7.38;100.00;96931.84;5040561;28;20076;-59
2022/01/30 00:32:20;;;;;;;3.00;2.80;;;;;;;7.47;100.00;96925.09;5042250;28;20087;-54
2022/01/30 00:35:09;;;;;;;3.33;3.13;;;;;;;7.41;100.00;96930.81;5038995;28;20949;-55
2022/01/30 00:37:41;;;;;;;3.42;3.13;;;;;;;7.33;100.00;96882.38;5057745;28;20045;-52
2022/01/30 00:40:29;;;;;;;2.80;2.70;;;;;;;7.38;100.00;96893.34;5060850;28;20072;-54
2022/01/30 00:42:58;;;;;;;3.00;2.80;;;;;;;7.50;100.00;96909.97;5060298;28;20068;-55
2022/01/30 00:45:28;;;;;;;3.08;2.88;;;;;;;7.57;100.00;96899.81;5060846;28;20132;-50
2022/01/30 00:47:57;;;;;;;2.85;2.75;;;;;;;7.38;100.00;96903.84;5061840;28;20068;-55
2022/01/30 00:50:25;;;;;;;3.28;3.08;;;;;;;7.64;100.00;96915.94;5064372;28;20439;-51
2022/01/30 00:52:55;;;;;;;3.08;2.88;;;;;;;7.53;100.00;96908.88;5056971;28;20072;-52
2022/01/30 00:55:25;;;;;;;3.10;2.90;;;;;;;7.53;100.00;96891.34;5058082;28;20059;-57
2022/01/30 00:57:53;;;;;;;3.10;2.90;;;;;;;7.50;100.00;96902.09;5060587;28;20451;-56
2022/01/30 01:00:22;;;;;;;3.05;2.88;;;;;;;7.48;100.00;96874.28;5060861;28;20068;-50
2022/01/30 01:02:52;;;;;;;3.22;2.90;;;;;;;7.57;100.00;96933.94;5066134;28;20080;-53
2022/01/30 01:05:21;;;;;;;3.20;3.00;;;;;;;7.68;100.00;96934.00;5065640;28;20084;-55
2022/01/30 01:07:52;;;;;;;3.03;2.83;;;;;;;7.54;100.00;96921.91;5063169;28;20098;-55
2022/01/30 01:10:29;;;;;;;3.13;2.92;;;;;;;7.48;100.00;96929.41;5065874;28;20072;-56
2022/01/30 01:13:10;;;;;;;2.90;2.70;;;;;;;7.54;100.00;96918.44;5061047;28;20639;-56
2022/01/30 01:24:04;;;;;;;3.20;3.00;;;;;;;7.63;100.00;96902.00;5064915;28;20183;-61
2022/01/30 01:26:33;;;;;;;3.10;2.90;;;;;;;7.53;100.00;96908.88;5064858;28;20084;-56
2022/01/30 01:29:01;;;;;;;2.65;2.55;;;;;;;7.55;100.00;96920.94;5048085;28;21156;-61
2022/01/30 01:31:30;;;;;;;2.80;2.70;;;;;;;7.57;100.00;96923.44;5042338;28;20472;-58
2022/01/30 01:34:17;;;;;;;3.03;2.83;;;;;;;7.74;100.00;96936.16;5041095;28;20543;-62
2022/01/30 01:36:45;;;;;;;2.90;2.70;;;;;;;7.54;100.00;96942.91;5046876;28;20073;-61
2022/01/30 01:39:14;;;;;;;3.05;2.88;;;;;;;7.55;100.00;96943.72;5042434;28;20080;-62
2022/01/30 01:41:42;;;;;;;2.83;2.67;;;;;;;7.47;100.00;96935.59;5045832;28;20084;-61
2022/01/30 01:44:23;;;;;;;3.00;2.80;;;;;;;7.57;100.00;96936.56;5047287;28;20076;-62
2022/01/30 01:46:51;;;;;;;2.80;2.70;;;;;;;7.60;100.00;96944.22;5043264;28;20060;-63
2022/01/30 01:49:27;;;;;;;3.00;2.80;;;;;;;7.53;100.00;96943.00;5044901;28;20124;-63
2022/01/30 01:52:18;;;;;;;2.92;2.78;;;;;;;7.58;100.00;96938.25;5044780;28;20084;-63
2022/01/30 01:54:47;;;;;;;3.00;2.85;;;;;;;7.53;100.00;96919.38;5040851;28;20049;-63
2022/01/30 01:57:16;;;;;;;3.00;2.80;;;;;;;7.44;100.00;96894.69;5045735;28;20326;-62
2022/01/30 01:59:44;;;;;;;2.70;2.60;;;;;;;7.48;100.00;96932.84;5043342;28;20057;-60
2022/01/30 02:02:13;;;;;;;2.70;2.60;;;;;;;7.47;100.00;96928.56;5045765;28;20084;-63
2022/01/30 02:04:43;;;;;;;2.70;2.60;;;;;;;7.52;100.00;96900.19;5044438;28;20537;-63
2022/01/30 02:07:39;;;;;;;2.75;2.58;;;;;;;7.60;100.00;96908.34;5043144;28;20639;-63
2022/01/30 02:10:11;;;;;;;3.03;2.83;;;;;;;7.46;100.00;96899.78;5042250;28;20060;-63
2022/01/30 02:12:47;;;;;;;3.35;3.05;;;;;;;7.59;100.00;96908.44;5043279;28;20600;-63
2022/01/30 02:15:34;;;;;;;3.08;2.88;;;;;;;7.50;100.00;96914.34;5043224;28;20060;-63
2022/01/30 02:24:01;;;;;;;3.13;2.92;;;;;;;7.40;100.00;96908.13;5043098;28;20076;-63
2022/01/30 02:26:36;;;;;;;3.42;3.22;;;;;;;7.40;100.00;96881.88;5046099;28;20098;-63
2022/01/30 02:29:04;;;;;;;2.90;2.70;;;;;;;7.32;100.00;96883.28;5042834;28;20386;-63
2022/01/30 02:31:35;;;;;;;2.70;2.60;;;;;;;7.33;100.00;96892.03;5045343;28;20079;-64
2022/01/30 02:34:04;;;;;;;3.28;3.08;;;;;;;7.31;100.00;96883.41;5044285;28;20474;-64
2022/01/30 02:36:32;;;;;;;3.00;2.80;;;;;;;7.30;100.00;96894.88;5044970;28;20077;-63
2022/01/30 02:39:02;;;;;;;3.35;3.05;;;;;;;7.40;100.00;96874.00;5042978;28;20098;-64
2022/01/30 02:41:31;;;;;;;3.20;3.00;;;;;;;7.26;100.00;96872.41;5045493;28;20071;-63
2022/01/30 02:44:10;;;;;;;3.10;2.90;;;;;;;7.23;100.00;96863.00;5064044;28;20060;-65
2022/01/30 02:46:42;;;;;;;3.03;2.83;;;;;;;7.20;100.00;96876.34;5045859;28;20616;-64
2022/01/30 02:49:27;;;;;;;3.13;2.92;;;;;;;7.22;100.00;96857.88;5042067;28;20080;-64
2022/01/30 02:51:58;;;;;;;2.70;2.60;;;;;;;7.23;100.00;96860.38;5043614;28;20072;-63
2022/01/30 02:54:29;;;;;;;2.80;2.70;;;;;;;7.17;100.00;96860.84;5044142;28;20061;-64
2022/01/30 02:56:58;;;;;;;3.00;2.80;;;;;;;7.20;100.00;96875.50;5041854;28;20072;-63
2022/01/30 02:59:26;;;;;;;3.03;2.83;;;;;;;7.19;100.00;96871.19;5045059;28;20460;-62
2022/01/30 03:01:55;;;;;;;2.88;2.72;;;;;;;7.23;100.00;96878.75;5042144;28;20431;-62
2022/01/30 03:04:24;;;;;;;2.83;2.72;;;;;;;7.18;100.00;96865.13;5060283;28;20473;-62
2022/01/30 03:06:52;;;;;;;2.80;2.70;;;;;;;7.14;100.00;96861.06;5043478;28;20065;-62
2022/01/30 03:09:21;;;;;;;3.10;2.90;;;;;;;7.14;100.00;96876.78;5042945;28;20459;-62
2022/01/30 03:11:51;;;;;;;3.95;2.83;;;;;;;7.14;100.00;96889.91;5043392;28;20111;-62
2022/01/30 03:14:20;;;;;;;2.72;2.63;;;;;;;7.11;100.00;96898.00;5045972;28;20073;-61
2022/01/30 03:16:54;;;;;;;3.00;2.80;;;;;;;7.21;100.00;96895.53;5044040;28;20379;-62
2022/01/30 03:19:22;;;;;;;2.88;2.78;;;;;;;7.24;100.00;96883.03;5060328;28;20060;-62
2022/01/30 03:21:51;;;;;;;3.00;2.80;;;;;;;7.26;100.00;96920.50;5063875;28;20486;-62
2022/01/30 03:24:19;;;;;;;3.13;2.92;;;;;;;7.30;100.00;96931.59;5062738;28;20549;-61
2022/01/30 03:26:48;;;;;;;3.20;3.00;;;;;;;7.17;100.00;96909.84;5063122;28;20071;-63
2022/01/30 03:29:18;;;;;;;2.70;2.60;;;;;;;7.27;100.00;96923.94;5065357;28;20076;-61
2022/01/30 03:31:47;;;;;;;2.90;2.70;;;;;;;7.35;100.00;96925.03;5063922;28;20068;-63
2022/01/30 03:34:16;;;;;;;3.13;2.92;;;;;;;7.26;100.00;96907.38;5059462;28;20056;-62
2022/01/30 03:36:44;;;;;;;2.90;2.80;;;;;;;7.16;100.00;96900.28;5062548;28;20075;-62
2022/01/30 03:39:13;;;;;;;3.17;2.88;;;;;;;7.45;100.00;96927.00;5079856;28;20079;-60
2022/01/30 03:41:41;;;;;;;2.65;2.55;;;;;;;7.47;100.00;96912.00;5062071;28;20361;-62
2022/01/30 03:44:09;;;;;;;3.08;2.88;;;;;;;7.28;100.00;96918.56;5063297;28;20075;-61
2022/01/30 03:46:39;;;;;;;2.85;2.65;;;;;;;7.32;100.00;96927.06;5063491;28;20118;-63
2022/01/30 03:49:23;;;;;;;2.90;2.70;;;;;;;7.34;100.00;96927.78;5075108;28;20064;-62
2022/01/30 03:51:52;;;;;;;2.75;2.65;;;;;;;7.28;100.00;96925.63;5045886;28;20071;-61
2022/01/30 03:54:20;;;;;;;3.00;2.80;;;;;;;7.37;100.00;96935.44;5065604;28;20549;-61
2022/01/30 03:56:49;;;;;;;2.60;2.50;;;;;;;7.31;100.00;96925.38;5062138;28;20068;-57
2022/01/30 03:59:17;;;;;;;2.90;2.70;;;;;;;7.27;100.00;96918.69;5064800;28;20111;-62
2022/01/30 04:01:47;;;;;;;2.70;2.60;;;;;;;7.10;100.00;96919.94;5047475;28;20068;-61
2022/01/30 04:04:16;;;;;;;2.92;2.72;;;;;;;7.19;100.00;96928.91;5041892;28;20063;-61
2022/01/30 04:06:45;;;;;;;3.17;2.97;;;;;;;7.00;100.00;96925.00;5043073;28;20499;-62
2022/01/30 04:09:14;;;;;;;2.92;2.75;;;;;;;7.06;100.00;96910.63;5038287;28;20513;-62
2022/01/30 04:11:42;;;;;;;3.00;2.90;;;;;;;7.20;100.00;96922.72;5042289;28;20064;-62
2022/01/30 04:14:12;;;;;;;3.10;2.90;;;;;;;7.08;100.00;96930.53;5065630;28;20447;-61
2022/01/30 04:16:40;;;;;;;2.70;2.50;;;;;;;7.09;100.00;96916.47;5044499;28;20072;-61
2022/01/30 04:19:11;;;;;;;3.10;2.90;;;;;;;7.10;100.00;96922.56;5039961;28;20073;-62
2022/01/30 04:21:40;;;;;;;3.45;3.17;;;;;;;7.16;100.00;96930.00;5043708;28;20641;-61
2022/01/30 04:24:08;;;;;;;3.35;3.05;;;;;;;7.17;100.00;96933.44;5043803;28;20072;-62
2022/01/30 04:26:37;;;;;;;3.00;2.80;;;;;;;7.15;100.00;96917.81;5039277;28;20068;-62
2022/01/30 04:29:06;;;;;;;2.83;2.72;;;;;;;7.10;100.00;96933.03;5043003;28;20061;-61
2022/01/30 04:31:35;;;;;;;3.05;2.85;;;;;;;7.06;100.00;96915.88;5040199;28;20462;-62
2022/01/30 04:34:04;;;;;;;2.85;2.70;;;;;;;7.09;100.00;96926.13;5053428;28;20075;-60
2022/01/30 04:36:39;;;;;;;3.22;3.03;;;;;;;7.11;100.00;96926.84;5052823;28;20068;-61
2022/01/30 04:39:16;;;;;;;2.80;2.70;;;;;;;7.09;100.00;96926.97;5041414;28;20463;-62
2022/01/30 04:53:09;;;;;;;2.80;2.70;;;;;;;7.16;100.00;96919.50;5042024;28;20527;-62
2022/01/30 04:56:25;;;;;;;3.00;2.80;;;;;;;7.07;100.00;96933.28;5043087;28;20539;-62
2022/01/30 04:58:55;;;;;;;3.08;2.90;;;;;;;7.19;100.00;96952.50;5041062;28;20072;-61
2022/01/30 05:01:37;;;;;;;2.90;2.75;;;;;;;7.23;100.00;96961.84;5039409;28;20126;-60
2022/01/30 05:04:20;;;;;;;3.03;2.83;;;;;;;7.17;100.00;96978.88;5042703;28;20068;-61
2022/01/30 05:07:26;;;;;;;3.20;3.00;;;;;;;7.15;100.00;96972.88;5040517;28;20061;-63
2022/01/30 05:09:44;;;;;;;2.97;2.78;;;;;;;7.19;100.00;96966.47;5040789;28;20084;-62
2022/01/30 05:12:14;;;;;;;2.80;2.70;;;;;;;7.02;100.00;96972.09;5041408;28;20080;-62
2022/01/30 05:14:44;;;;;;;3.10;2.90;;;;;;;7.02;100.00;96956.34;5039297;28;20088;-62
2022/01/30 05:17:13;;;;;;;2.92;2.80;;;;;;;6.98;100.00;96947.03;5043520;28;20168;-62
2022/01/30 05:19:42;;;;;;;2.70;2.60;;;;;;;6.90;100.00;96966.78;5042130;28;20065;-61
2022/01/30 05:22:12;;;;;;;3.17;2.97;;;;;;;6.98;100.00;96963.59;5041873;28;20069;-60
2022/01/30 05:24:41;;;;;;;2.67;2.58;;;;;;;6.83;100.00;96965.53;5041142;28;20068;-62
2022/01/30 05:27:13;;;;;;;2.92;2.80;;;;;;;6.93;100.00;96968.34;5042507;28;20056;-60
2022/01/30 05:29:42;;;;;;;2.83;2.72;;;;;;;6.83;100.00;96952.44;5039116;28;20076;-59
2022/01/30 05:32:11;;;;;;;4.43;2.70;;;;;;;6.77;100.00;96970.38;5062081;28;20080;-61
2022/01/30 05:34:41;;;;;;;2.90;2.70;;;;;;;6.85;100.00;96970.69;5044419;28;20720;-61
2022/01/30 05:37:09;;;;;;;2.70;2.60;;;;;;;6.66;100.00;96955.41;5041757;28;20084;-62
2022/01/30 05:39:38;;;;;;;3.00;2.80;;;;;;;6.81;100.00;96951.72;5050777;28;20080;-61
2022/01/30 05:42:08;;;;;;;2.92;2.72;;;;;;;6.72;100.00;96954.16;5057336;28;20056;-61
2022/01/30 05:44:45;;;;;;;2.90;2.70;;;;;;;6.79;100.00;96955.38;5043055;28;20111;-62
2022/01/30 05:47:21;;;;;;;2.97;2.78;;;;;;;6.66;100.00;96951.00;5044158;28;20084;-61
2022/01/30 05:49:50;;;;;;;3.15;2.90;;;;;;;6.86;100.00;96951.38;5044347;28;20068;-62
2022/01/30 05:52:19;;;;;;;3.10;2.90;;;;;;;6.72;100.00;96933.19;5045762;28;20083;-61
2022/01/30 05:54:47;;;;;;;3.17;2.97;;;;;;;6.68;100.00;96950.91;5045078;28;20079;-62
2022/01/30 05:57:15;;;;;;;3.20;3.00;;;;;;;6.62;100.00;96939.06;5044556;28;20076;-62
2022/01/30 05:59:45;;;;;;;3.20;3.00;;;;;;;6.54;100.00;96919.59;5045725;28;20530;-57
2022/01/30 06:02:14;;;;;;;3.17;3.00;;;;;;;6.44;100.00;96936.91;5048535;28;20083;-61
2022/01/30 06:04:42;;;;;;;3.45;3.25;;;;;;;6.53;100.00;96950.19;5045011;28;20506;-62
2022/01/30 06:07:12;;;;;;;3.10;2.90;;;;;;;6.53;100.00;96959.84;5058372;28;20072;-62
2022/01/30 06:09:40;;;;;;;3.05;2.90;;;;;;;6.62;100.00;96967.88;5066005;28;20083;-62
2022/01/30 06:12:10;;;;;;;3.50;3.30;;;;;;;6.63;100.00;96969.56;5059060;28;20121;-62
2022/01/30 06:14:39;;;;;;;4.40;3.30;;;;;;;6.65;100.00;96958.97;5044271;28;20084;-62
2022/01/30 06:17:08;;;;;;;3.53;3.33;;;;;;;6.60;100.00;96961.91;5066108;28;20096;-61
2022/01/30 06:19:41;;;;;;;3.20;3.00;;;;;;;6.70;100.00;96985.69;5067010;28;20494;-61
2022/01/30 06:22:10;;;;;;;3.40;3.20;;;;;;;6.66;100.00;96979.00;5064886;28;20063;-61
2022/01/30 06:24:39;;;;;;;3.45;3.25;;;;;;;6.81;100.00;97004.16;5065033;28;20075;-61
2022/01/30 06:27:07;;;;;;;3.20;3.00;;;;;;;6.88;100.00;96987.03;5065540;28;20102;-62
2022/01/30 06:29:35;;;;;;;3.00;2.80;;;;;;;6.84;100.00;97000.44;5062956;28;20447;-62
2022/01/30 06:32:05;;;;;;;3.13;2.95;;;;;;;6.73;100.00;97000.38;5066317;28;20487;-57
2022/01/30 06:34:35;;;;;;;3.30;3.10;;;;;;;6.80;100.00;97002.44;5063082;28;20130;-61
2022/01/30 06:37:03;;;;;;;3.30;3.10;;;;;;;6.87;100.00;97016.81;5063591;28;20527;-62
2022/01/30 06:39:32;;;;;;;3.20;3.00;;;;;;;6.86;100.00;97030.84;5063812;28;20489;-61
2022/01/30 06:42:00;;;;;;;3.10;2.90;;;;;;;6.77;100.00;97025.41;5062538;28;20072;-62
2022/01/30 06:44:28;;;;;;;3.22;3.00;;;;;;;6.84;100.00;97024.03;5068041;28;20080;-62
2022/01/30 06:46:57;;;;;;;3.10;2.90;;;;;;;6.89;100.00;97035.06;5044236;28;20065;-60
2022/01/30 06:49:26;;;;;;;3.58;3.20;;;;;;;6.73;100.00;97030.03;5041448;28;20128;-62
2022/01/30 06:51:56;;;;;;;3.47;2.97;;;;;;;6.89;100.00;97045.53;5042005;28;20067;-61
2022/01/30 06:54:24;;;;;;;4.63;2.95;;;;;;;6.97;100.00;97043.22;5044360;28;20064;-61
2022/01/30 06:56:52;;;;;;;3.90;3.28;;;;;;;6.84;100.00;97021.41;5043262;28;20126;-62
2022/01/30 06:59:21;;;;;;;3.20;2.90;;;;;;;6.84;100.00;97037.97;5045768;28;20116;-60
2022/01/30 07:01:52;;;;;;;3.47;2.95;;;;;;;6.82;100.00;97045.13;5043553;28;20064;-62
2022/01/30 07:04:21;;;;;;;3.53;3.28;;;;;;;6.79;100.00;97042.72;5042681;28;20083;-61
2022/01/30 07:06:49;;;;;;;2.90;2.70;;;;;;;6.81;100.00;97032.13;5042714;28;20071;-61
2022/01/30 07:09:19;;;;;;;3.22;3.03;;;;;;;6.82;100.00;97046.91;5042685;28;20075;-62
2022/01/30 07:11:48;;;;;;;3.22;2.92;;;;;;;6.71;100.00;97045.06;5042952;28;20470;-62
2022/01/30 07:14:16;;;;;;;2.85;2.70;;;;;;;6.70;100.00;97025.00;5045715;28;20080;-61
2022/01/30 07:16:45;;;;;;;2.78;2.67;;;;;;;6.70;100.00;97051.22;5044117;28;20073;-62
2022/01/30 07:19:13;;;;;;;3.00;2.80;;;;;;;6.84;100.00;97060.75;5043726;28;20076;-61
2022/01/30 07:21:42;;;;;;;3.13;3.00;;;;;;;6.92;100.00;97063.69;5043475;28;20061;-61
2022/01/30 07:24:10;;;;;;;3.10;2.90;;;;;;;6.75;100.00;97059.63;5039338;28;20061;-62
2022/01/30 07:26:40;;;;;;;3.40;3.10;;;;;;;6.81;100.00;97060.94;5042834;28;20475;-62
2022/01/30 07:29:08;;;;;;;3.00;2.80;;;;;;;6.86;100.00;97069.34;5044912;28;20803;-61
2022/01/30 07:31:37;;;;;;;3.63;3.33;;;;;;;6.98;100.00;97065.03;5043169;28;20071;-62
2022/01/30 07:34:05;;;;;;;3.00;2.80;;;;;;;6.97;100.00;97066.81;5043277;28;20076;-62
2022/01/30 07:36:35;;;;;;;3.30;3.00;;;;;;;7.01;100.00;97062.19;5043943;28;20061;-61
2022/01/30 07:39:06;;;;;;;3.47;3.27;;;;;;;7.00;100.00;97071.84;5036766;28;20514;-62
2022/01/30 07:41:34;;;;;;;2.85;2.72;;;;;;;7.07;100.00;97077.50;5040826;28;20591;-62
2022/01/30 07:44:06;;;;;;;3.65;3.30;;;;;;;7.14;100.00;97068.25;5045176;28;20080;-61
2022/01/30 07:46:35;;;;;;;3.10;2.90;;;;;;;7.08;100.00;97059.03;5042682;28;20060;-62
2022/01/30 07:49:04;;;;;;;3.30;3.10;;;;;;;7.14;100.00;97060.38;5040921;28;20080;-62
2022/01/30 07:51:32;;;;;;;3.55;3.20;;;;;;;7.11;100.00;97066.69;5071201;28;20131;-62
2022/01/30 07:54:00;;;;;;;3.70;3.38;;;;;;;6.96;100.00;97065.16;5062729;28;20502;-62
2022/01/30 07:56:29;;;;;;;3.15;2.90;;;;;;;7.22;100.00;97072.94;5062783;28;20100;-61
2022/01/30 07:58:58;;;;;;;3.40;3.10;;;;;;;7.19;100.00;97068.78;5061315;28;21467;-61
2022/01/30 08:01:27;;;;;;;3.55;3.35;;;;;;;7.07;100.00;97077.50;5062734;28;20064;-61
2022/01/30 08:03:56;;;;;;;3.70;3.45;;;;;;;7.25;100.00;97091.94;5061761;28;20068;-62
2022/01/30 08:06:25;;;;;;;3.42;3.13;;;;;;;7.09;100.00;97089.56;5062623;28;20471;-62
2022/01/30 08:08:53;;;;;;;3.35;3.05;;;;;;;7.21;100.00;97102.75;5060053;28;20141;-61
2022/01/30 08:11:23;;;;;;;8.27;3.50;;;;;;;6.47;100.00;97086.88;5064747;28;20076;-61
2022/01/30 08:13:51;;;;;;;8.02;4.18;;;;;;;5.77;100.00;97096.72;5062230;28;20749;-61
2022/01/30 08:16:25;;;;;;;4.07;3.78;;;;;;;5.41;100.00;97099.00;5044548;28;20060;-63
2022/01/30 08:18:55;;;;;;;3.90;3.60;;;;;;;5.37;100.00;97100.13;5043588;28;20063;-61
2022/01/30 08:21:24;;;;;;;6.88;3.80;;;;;;;5.29;100.00;97106.75;5062238;28;20071;-61
2022/01/30 08:23:52;;;;;;;5.97;3.60;;;;;;;5.11;100.00;97091.28;5057125;28;25042;-62
2022/01/30 08:26:21;;;;;;;6.90;4.50;;;;;;;5.09;100.00;97111.44;5042798;28;20079;-61
2022/01/30 08:28:49;;;;;;;4.95;4.30;;;;;;;4.95;100.00;97104.44;5042801;28;20080;-60
2022/01/30 08:31:17;;;;;;;4.15;3.80;;;;;;;5.09;100.00;97110.59;5042018;28;20462;-61
2022/01/30 08:33:46;;;;;;;6.32;4.45;;;;;;;5.20;100.00;97110.81;5041693;28;20072;-61
2022/01/30 08:36:16;;;;;;;6.53;4.15;;;;;;;5.25;100.00;97119.19;5041866;28;20061;-59
2022/01/30 08:38:44;;;;;;;4.15;3.85;;;;;;;5.42;100.00;97110.28;5041948;28;20089;-60
2022/01/30 08:41:13;;;;;;;6.90;4.13;;;;;;;5.71;100.00;97124.13;5042503;28;20080;-60
2022/01/30 08:43:41;;;;;;;7.07;4.68;;;;;;;5.79;100.00;97129.72;5041764;28;20076;-61
2022/01/30 08:46:09;;;;;;;6.78;4.03;;;;;;;6.08;100.00;97140.09;5042546;28;20479;-61
2022/01/30 08:48:38;;;;;;;5.38;4.13;;;;;;;6.04;100.00;97144.69;5042110;28;20068;-59
2022/01/30 08:51:06;;;;;;;5.88;3.97;;;;;;;6.15;100.00;97155.31;5040500;28;20511;-60
2022/01/30 08:53:36;;;;;;;7.60;4.90;;;;;;;6.19;100.00;97155.94;5041720;28;20452;-59
2022/01/30 08:56:05;;;;;;;11.30;4.15;;;;;;;6.23;100.00;97157.44;5042923;28;20724;-61
2022/01/30 08:58:34;;;;;;;4.07;3.70;;;;;;;6.15;100.00;97155.31;5041742;28;20072;-61
2022/01/30 09:01:04;;;;;;;4.25;3.58;;;;;;;6.18;100.00;97154.28;5040171;28;20065;-60
2022/01/30 09:03:33;;;;;;;6.82;4.10;;;;;;;6.35;100.00;97159.25;5042554;28;20063;-61
2022/01/30 09:06:01;;;;;;;5.22;4.30;;;;;;;6.68;100.00;97159.75;5038333;28;20073;-59
2022/01/30 09:08:31;;;;;;;6.22;4.25;;;;;;;6.85;100.00;97168.13;5044178;28;20523;-58
2022/01/30 09:11:01;;;;;;;6.43;4.10;;;;;;;6.86;100.00;97159.31;5061260;28;20477;-61
2022/01/30 09:13:29;;;;;;;5.20;3.33;;;;;;;6.97;100.00;97160.38;5062432;28;20072;-61
2022/01/30 09:15:59;;;;;;;7.03;3.88;;;;;;;7.23;100.00;97159.41;5060684;28;20507;-60
2022/01/30 09:18:27;;;;;;;7.28;3.70;;;;;;;7.17;100.00;97167.72;5054224;28;20064;-61
2022/01/30 09:20:56;;;;;;;4.38;3.75;;;;;;;7.38;100.00;97174.09;5042735;28;20052;-60
2022/01/30 09:23:25;;;;;;;5.72;3.60;;;;;;;7.52;100.00;97167.03;5045770;28;20639;-62
2022/01/30 09:25:53;;;;;;;5.15;3.92;;;;;;;7.15;100.00;97151.22;5044412;28;20091;-61
2022/01/30 09:28:23;;;;;;;4.72;3.40;;;;;;;7.20;100.00;97156.19;5046436;28;20073;-59
2022/01/30 09:30:52;;;;;;;8.07;3.78;;;;;;;7.17;100.00;97161.63;5045575;28;20084;-62
2022/01/30 09:33:20;;;;;;;7.05;3.53;;;;;;;7.37;100.00;97159.28;5046064;28;20087;-61
2022/01/30 09:35:49;;;;;;;6.75;3.83;;;;;;;7.31;100.00;97172.84;5047333;28;20072;-62
2022/01/30 09:38:17;;;;;;;5.30;3.65;;;;;;;7.08;100.00;97155.22;5049440;28;20081;-61
2022/01/30 09:40:46;;;;;;;6.07;3.70;;;;;;;6.89;100.00;97171.41;5044403;28;20065;-61
2022/01/30 09:43:14;;;;;;;6.68;3.80;;;;;;;6.90;100.00;97159.94;5045624;28;20599;-62
2022/01/30 09:45:45;;;;;;;5.93;4.30;;;;;;;6.70;100.00;97165.69;5045530;28;20080;-60
2022/01/30 09:48:14;;;;;;;5.30;3.88;;;;;;;6.63;100.00;97176.59;5044873;28;20080;-58
2022/01/30 09:50:43;;;;;;;5.00;3.70;;;;;;;6.71;100.00;97168.25;5044100;28;20084;-60
2022/01/30 09:53:16;;;;;;;8.18;3.90;;;;;;;7.06;100.00;97160.59;5047954;28;20585;-61
2022/01/30 09:55:45;;;;;;;7.70;4.22;;;;;;;6.87;100.00;97133.94;5042152;28;20530;-55
2022/01/30 09:58:14;;;;;;;8.75;4.00;;;;;;;6.81;100.00;97131.72;5044130;28;20065;-62
2022/01/30 10:00:46;;;;;;;4.38;3.45;;;;;;;6.98;100.00;97146.31;5044936;28;20076;-60
2022/01/30 10:03:21;;;;;;;4.38;3.70;;;;;;;7.10;100.00;97153.34;5044309;28;20068;-61
2022/01/30 10:06:06;;;;;;;7.30;4.13;;;;;;;7.11;100.00;97139.28;5041896;28;20069;-60
2022/01/30 10:08:41;;;;;;;5.35;3.60;;;;;;;7.23;100.00;97161.22;5042777;28;20234;-60
2022/01/30 10:11:27;;;;;;;8.73;4.30;;;;;;;7.26;100.00;97150.47;5046464;28;20033;-62
2022/01/30 10:14:06;;;;;;;9.93;3.35;;;;;;;7.17;100.00;97159.84;5044831;28;20080;-61
2022/01/30 10:16:44;;;;;;;5.05;3.67;;;;;;;7.29;100.00;97158.97;5044773;28;20075;-62
2022/01/30 10:19:17;;;;;;;6.35;4.00;;;;;;;7.59;100.00;97166.47;5042829;28;20509;-62
2022/01/30 10:21:46;;;;;;;8.55;3.78;;;;;;;7.83;100.00;97171.78;5045466;28;20068;-62
2022/01/30 10:24:22;;;;;;;7.53;3.28;;;;;;;7.85;100.00;97169.06;5045638;28;20453;-61
2022/01/30 10:26:51;;;;;;;8.25;3.88;;;;;;;7.92;100.00;97169.44;5045293;28;20065;-59
2022/01/30 10:29:22;;;;;;;9.23;4.05;;;;;;;7.79;100.00;97166.84;5047141;28;20354;-61
2022/01/30 10:32:03;;;;;;;5.85;3.63;;;;;;;8.08;100.00;97175.25;5043983;28;20072;-57
2022/01/30 10:34:32;;;;;;;7.07;3.60;;;;;;;8.17;100.00;97168.50;5043368;28;20091;-62
2022/01/30 10:37:16;;;;;;;5.47;3.50;;;;;;;7.92;100.00;97151.91;5044875;28;20061;-62
2022/01/30 10:40:01;;;;;;;10.55;3.88;;;;;;;8.28;100.00;97143.09;5042803;28;20632;-62
2022/01/30 10:42:35;;;;;;;7.95;3.92;;;;;;;8.27;100.00;97145.84;5044198;28;20060;-61
2022/01/30 10:45:06;;;;;;;4.80;3.15;;;;;;;8.35;100.00;97163.69;5044342;28;20691;-62
2022/01/30 10:47:37;;;;;;;8.23;3.83;;;;;;;8.49;100.00;97166.97;5044052;28;20076;-61
2022/01/30 10:50:17;;;;;;;9.00;3.58;;;;;;;8.55;100.00;97163.91;5046676;28;20093;-62
2022/01/30 10:52:53;;;;;;;5.47;3.83;;;;;;;8.65;100.00;97181.63;5061000;28;20072;-61
2022/01/30 10:55:36;;;;;;;9.68;3.42;;;;;;;8.88;100.00;97166.72;5048160;28;20509;-61
2022/01/30 10:58:06;;;;;;;6.70;3.28;;;;;;;8.56;100.00;97170.00;5045104;28;20080;-61
2022/01/30 11:00:40;;;;;;;7.88;3.42;;;;;;;8.64;100.00;97174.69;5043849;28;20541;-59
2022/01/30 11:03:11;;;;;;;4.90;3.65;;;;;;;8.43;100.00;97149.06;5043425;28;20077;-61
2022/01/30 11:05:59;;;;;;;5.80;3.85;;;;;;;8.77;100.00;97151.75;5044703;28;20586;-62
2022/01/30 11:08:29;;;;;;;6.28;3.17;;;;;;;8.46;100.00;97156.69;5047265;28;20088;-61
2022/01/30 11:11:04;;;;;;;6.90;3.97;;;;;;;8.68;100.00;97155.09;5060909;28;21586;-62
2022/01/30 11:13:47;;;;;;;7.03;3.35;;;;;;;8.84;100.00;97154.75;5045976;28;20065;-62
2022/01/30 11:19:03;;;;;;;7.13;4.07;;;;;;;8.41;100.00;97145.69;5042942;28;20076;-63
2022/01/30 11:21:32;;;;;;;7.82;3.38;;;;;;;8.42;100.00;97152.63;5042740;28;20071;-62
2022/01/30 11:24:01;;;;;;;3.92;3.17;;;;;;;8.69;100.00;97139.19;5042896;28;20076;-62
2022/01/30 11:26:29;;;;;;;5.88;3.08;;;;;;;8.58;100.00;97133.91;5044931;28;20099;-62
2022/01/30 11:28:58;;;;;;;4.68;2.70;;;;;;;8.64;100.00;97149.25;5063559;28;20232;-63
2022/01/30 11:31:27;;;;;;;4.68;3.25;;;;;;;8.40;100.00;97095.88;5062877;28;20118;-63
2022/01/30 11:33:56;;;;;;;9.55;3.00;;;;;;;8.72;100.00;97144.22;5061848;28;20068;-62
2022/01/30 11:36:26;;;;;;;7.88;3.42;;;;;;;8.54;100.00;97137.75;5063409;28;20446;-61
2022/01/30 11:38:55;;;;;;;8.65;3.47;;;;;;;8.79;100.00;97128.81;5060993;28;20067;-62
2022/01/30 11:41:23;;;;;;;4.20;2.45;;;;;;;9.10;100.00;97142.25;5063903;28;20526;-63
2022/01/30 11:44:24;;;;;;;6.20;3.20;;;;;;;9.31;100.00;97134.47;5060895;28;20124;-62
2022/01/30 11:47:24;;;;;;;6.10;3.03;;;;;;;8.80;100.00;97122.59;5062163;28;20470;-62
2022/01/30 11:50:06;;;;;;;4.10;2.50;;;;;;;9.31;100.00;97134.47;5062252;28;20064;-62
2022/01/30 11:52:58;;;;;;;4.50;2.83;;;;;;;9.72;100.00;97139.94;5057951;28;20121;-63
2022/01/30 11:55:41;;;;;;;6.50;2.97;;;;;;;9.20;100.00;97149.31;5062813;28;20060;-62
2022/01/30 11:58:35;;;;;;;7.03;2.95;;;;;;;9.24;100.00;97136.75;5063102;28;20510;-62
2022/01/30 12:01:05;;;;;;;4.75;3.10;;;;;;;9.49;100.00;97144.38;5060744;28;20170;-62
2022/01/30 12:03:36;;;;;;;4.13;2.90;;;;;;;9.91;100.00;97149.84;5061195;28;20083;-64
2022/01/30 12:06:30;;;;;;;5.47;3.05;;;;;;;9.63;100.00;97135.41;5059904;28;21108;-62
2022/01/30 12:09:00;;;;;;;2.80;2.45;;;;;;;9.80;100.00;97151.66;5052468;28;20063;-61
2022/01/30 12:12:03;;;;;;;3.72;2.47;;;;;;;9.69;100.00;97160.41;5065239;28;20079;-62
2022/01/30 12:14:56;;;;;;;7.55;3.33;;;;;;;9.42;100.00;97150.25;5061327;28;20269;-62
2022/01/30 12:17:58;;;;;;;4.63;2.35;;;;;;;9.59;100.00;97138.41;5060016;28;20322;-62
2022/01/30 12:20:28;;;;;;;10.68;3.33;;;;;;;9.60;100.00;97140.94;5055982;28;20075;-63
2022/01/30 12:22:57;;;;;;;5.88;3.03;;;;;;;9.12;100.00;97153.47;5062420;28;20067;-62
2022/01/30 12:25:35;;;;;;;5.20;3.15;;;;;;;8.80;100.00;97149.72;5060618;28;20060;-61